createdAt,value
2017-12-19T00:00:56.327Z,0
2017-12-19T00:01:56.562Z,0
2017-12-19T00:02:56.050Z,0
2017-12-19T00:03:56.297Z,0
2017-12-19T00:04:56.267Z,0
2017-12-19T00:05:56.537Z,0
2017-12-19T00:06:56.268Z,0
2017-12-19T00:07:55.761Z,0
2017-12-19T00:08:56.482Z,0
2017-12-19T00:09:56.482Z,0
2017-12-19T00:10:56.239Z,0
2017-12-19T00:11:56.466Z,0
2017-12-19T00:12:56.209Z,0
2017-12-19T00:13:55.697Z,0
2017-12-19T00:14:56.204Z,0
2017-12-19T00:15:55.672Z,0
2017-12-19T00:16:56.425Z,0
2017-12-19T00:17:56.169Z,0
2017-12-19T00:18:56.170Z,0
2017-12-19T00:19:57.509Z,0
2017-12-19T00:20:56.141Z,0
2017-12-19T00:21:56.128Z,0
2017-12-19T00:22:56.125Z,0
2017-12-19T00:23:55.858Z,0
2017-12-19T00:24:55.844Z,0
2017-12-19T00:25:56.099Z,0
2017-12-19T00:26:56.086Z,0
2017-12-19T00:27:56.084Z,0
2017-12-19T00:28:55.811Z,0
2017-12-19T00:29:56.367Z,0
2017-12-19T00:30:56.040Z,0
2017-12-19T00:31:56.301Z,0
2017-12-19T00:32:56.294Z,0
2017-12-19T00:33:56.276Z,0
2017-12-19T00:34:58.131Z,0
2017-12-19T00:35:56.267Z,0
2017-12-19T00:36:56.260Z,0
2017-12-19T00:37:55.984Z,0
2017-12-19T00:38:55.975Z,0
2017-12-19T00:39:55.729Z,0
2017-12-19T00:40:55.961Z,0
2017-12-19T00:41:55.950Z,0
2017-12-19T00:42:56.196Z,0
2017-12-19T00:43:55.930Z,0
2017-12-19T00:44:55.933Z,0
2017-12-19T00:45:55.916Z,0
2017-12-19T00:46:56.211Z,0
2017-12-19T00:47:56.155Z,0
2017-12-19T00:48:56.143Z,0
2017-12-19T00:49:57.586Z,0
2017-12-19T00:50:55.876Z,0
2017-12-19T00:51:56.121Z,0
2017-12-19T00:52:55.859Z,0
2017-12-19T00:53:55.844Z,0
2017-12-19T00:54:56.089Z,0
2017-12-19T00:55:55.835Z,0
2017-12-19T00:56:55.820Z,0
2017-12-19T00:57:55.808Z,0
2017-12-19T00:58:55.548Z,0
2017-12-19T00:59:55.540Z,0
2017-12-19T01:00:55.792Z,0
2017-12-19T01:01:56.031Z,0
2017-12-19T01:02:55.772Z,0
2017-12-19T01:03:56.014Z,0
2017-12-19T01:04:55.767Z,0
2017-12-19T01:05:56.018Z,0
2017-12-19T01:06:56.004Z,0
2017-12-19T01:07:55.990Z,0
2017-12-19T01:08:55.769Z,0
2017-12-19T01:09:55.746Z,0
2017-12-19T01:10:55.951Z,0
2017-12-19T01:11:55.694Z,0
2017-12-19T01:12:55.693Z,0
2017-12-19T01:13:55.927Z,0
2017-12-19T01:14:55.935Z,0
2017-12-19T01:15:55.656Z,0
2017-12-19T01:16:55.909Z,0
2017-12-19T01:17:55.648Z,0
2017-12-19T01:18:55.895Z,0
2017-12-19T01:19:55.674Z,0
2017-12-19T01:20:56.665Z,0
2017-12-19T01:21:55.916Z,0
2017-12-19T01:22:55.854Z,0
2017-12-19T01:23:55.613Z,0
2017-12-19T01:24:55.590Z,0
2017-12-19T01:25:55.883Z,0
2017-12-19T01:26:55.563Z,0
2017-12-19T01:27:55.852Z,0
2017-12-19T01:28:55.543Z,0
2017-12-19T01:29:55.801Z,0
2017-12-19T01:30:55.802Z,0
2017-12-19T01:31:55.803Z,0
2017-12-19T01:32:55.511Z,0
2017-12-19T01:33:55.848Z,0
2017-12-19T01:34:55.755Z,0
2017-12-19T01:36:00.496Z,0
2017-12-19T01:36:55.741Z,0
2017-12-19T01:37:55.500Z,0
2017-12-19T01:38:55.743Z,0
2017-12-19T01:39:55.701Z,0
2017-12-19T01:40:55.704Z,0
2017-12-19T01:41:55.788Z,0
2017-12-19T01:42:55.681Z,0
2017-12-19T01:43:55.437Z,0
2017-12-19T01:44:55.670Z,0
2017-12-19T01:45:55.669Z,0
2017-12-19T01:46:55.391Z,0
2017-12-19T01:47:55.140Z,0
2017-12-19T01:48:55.624Z,0
2017-12-19T01:49:55.381Z,0
2017-12-19T01:50:55.386Z,0
2017-12-19T01:51:56.672Z,0
2017-12-19T01:52:55.337Z,0
2017-12-19T01:53:55.602Z,0
2017-12-19T01:54:55.577Z,0
2017-12-19T01:55:55.313Z,0
2017-12-19T01:56:55.060Z,0
2017-12-19T01:57:55.552Z,0
2017-12-19T01:58:55.291Z,0
2017-12-19T01:59:55.292Z,0
2017-12-19T02:00:55.523Z,0
2017-12-19T02:01:55.513Z,0
2017-12-19T02:02:55.523Z,0
2017-12-19T02:03:55.511Z,0
2017-12-19T02:04:55.485Z,0
2017-12-19T02:05:55.482Z,0
2017-12-19T02:06:56.271Z,0
2017-12-19T02:07:55.469Z,0
2017-12-19T02:08:55.462Z,0
2017-12-19T02:09:55.192Z,0
2017-12-19T02:10:55.432Z,0
2017-12-19T02:11:55.427Z,0
2017-12-19T02:12:55.172Z,0
2017-12-19T02:13:55.413Z,0
2017-12-19T02:14:55.157Z,0
2017-12-19T02:15:55.392Z,0
2017-12-19T02:16:55.158Z,0
2017-12-19T02:17:55.375Z,0
2017-12-19T02:18:55.361Z,0
2017-12-19T02:19:55.360Z,0
2017-12-19T02:20:55.104Z,0
2017-12-19T02:21:57.186Z,0
2017-12-19T02:22:55.337Z,0
2017-12-19T02:23:55.072Z,0
2017-12-19T02:24:55.062Z,0
2017-12-19T02:25:55.059Z,0
2017-12-19T02:26:54.790Z,0
2017-12-19T02:27:55.037Z,0
2017-12-19T02:28:55.280Z,0
2017-12-19T02:29:55.025Z,0
2017-12-19T02:30:55.017Z,0
2017-12-19T02:31:55.286Z,0
2017-12-19T02:32:54.739Z,0
2017-12-19T02:33:55.256Z,0
2017-12-19T02:34:54.982Z,0
2017-12-19T02:35:54.968Z,0
2017-12-19T02:36:56.261Z,0
2017-12-19T02:37:54.958Z,0
2017-12-19T02:38:54.953Z,0
2017-12-19T02:39:55.201Z,0
2017-12-19T02:40:55.187Z,0
2017-12-19T02:41:54.926Z,0
2017-12-19T02:42:55.163Z,0
2017-12-19T02:43:54.902Z,0
2017-12-19T02:44:55.145Z,0
2017-12-19T02:45:55.134Z,0
2017-12-19T02:46:55.129Z,0
2017-12-19T02:47:54.614Z,0
2017-12-19T02:48:55.120Z,0
2017-12-19T02:49:54.846Z,0
2017-12-19T02:50:54.847Z,0
2017-12-19T02:51:55.085Z,0
2017-12-19T02:52:54.579Z,0
2017-12-19T02:53:54.573Z,0
2017-12-19T02:54:54.815Z,0
2017-12-19T02:55:54.558Z,0
2017-12-19T02:56:54.784Z,0
2017-12-19T02:57:55.031Z,0
2017-12-19T02:58:55.020Z,0
2017-12-19T02:59:54.544Z,0
2017-12-19T03:00:54.764Z,0
2017-12-19T03:01:54.749Z,0
2017-12-19T03:02:54.731Z,0
2017-12-19T03:03:54.728Z,0
2017-12-19T03:04:54.483Z,0
2017-12-19T03:05:54.717Z,0
2017-12-19T03:06:54.956Z,0
2017-12-19T03:07:57.716Z,0
2017-12-19T03:08:54.689Z,0
2017-12-19T03:09:54.670Z,0
2017-12-19T03:10:54.929Z,0
2017-12-19T03:11:54.907Z,0
2017-12-19T03:12:54.892Z,0
2017-12-19T03:13:54.893Z,0
2017-12-19T03:14:54.623Z,0
2017-12-19T03:15:54.666Z,0
2017-12-19T03:16:54.869Z,0
2017-12-19T03:17:54.357Z,0
2017-12-19T03:18:54.592Z,0
2017-12-19T03:19:54.841Z,0
2017-12-19T03:20:54.832Z,0
2017-12-19T03:21:54.882Z,0
2017-12-19T03:22:55.929Z,0
2017-12-19T03:23:54.800Z,0
2017-12-19T03:24:54.826Z,0
2017-12-19T03:25:54.544Z,0
2017-12-19T03:26:54.792Z,0
2017-12-19T03:27:54.784Z,0
2017-12-19T03:28:54.505Z,0
2017-12-19T03:29:54.749Z,0
2017-12-19T03:30:54.532Z,0
2017-12-19T03:31:54.481Z,0
2017-12-19T03:32:54.737Z,0
2017-12-19T03:33:54.458Z,0
2017-12-19T03:34:54.448Z,0
2017-12-19T03:35:54.702Z,0
2017-12-19T03:36:54.457Z,0
2017-12-19T03:37:54.480Z,0
2017-12-19T03:38:54.436Z,0
2017-12-19T03:39:54.684Z,0
2017-12-19T03:40:54.656Z,0
2017-12-19T03:41:54.642Z,0
2017-12-19T03:42:54.631Z,0
2017-12-19T03:43:54.387Z,0
2017-12-19T03:44:54.616Z,0
2017-12-19T03:45:54.625Z,0
2017-12-19T03:46:54.603Z,0
2017-12-19T03:47:55.397Z,0
2017-12-19T03:48:54.330Z,0
2017-12-19T03:49:54.325Z,0
2017-12-19T03:50:54.558Z,0
2017-12-19T03:51:54.549Z,0
2017-12-19T03:52:54.288Z,0
2017-12-19T03:53:54.533Z,0
2017-12-19T03:54:54.036Z,0
2017-12-19T03:55:54.514Z,0
2017-12-19T03:56:53.992Z,0
2017-12-19T03:57:54.493Z,0
2017-12-19T03:58:54.481Z,0
2017-12-19T03:59:54.484Z,0
2017-12-19T04:00:54.208Z,0
2017-12-19T04:01:54.463Z,0
2017-12-19T04:02:54.447Z,0
2017-12-19T04:03:54.186Z,0
2017-12-19T04:04:54.181Z,0
2017-12-19T04:05:53.915Z,0
2017-12-19T04:06:54.414Z,0
2017-12-19T04:07:54.396Z,0
2017-12-19T04:08:54.147Z,0
2017-12-19T04:09:54.394Z,0
2017-12-19T04:10:54.393Z,0
2017-12-19T04:11:54.373Z,0
2017-12-19T04:12:54.111Z,0
2017-12-19T04:13:53.852Z,0
2017-12-19T04:14:54.096Z,0
2017-12-19T04:15:54.341Z,0
2017-12-19T04:16:54.334Z,0
2017-12-19T04:17:54.336Z,0
2017-12-19T04:18:54.061Z,0
2017-12-19T04:19:54.312Z,0
2017-12-19T04:20:54.050Z,0
2017-12-19T04:21:54.282Z,0
2017-12-19T04:22:54.015Z,0
2017-12-19T04:23:55.317Z,0
2017-12-19T04:24:54.004Z,0
2017-12-19T04:25:54.242Z,0
2017-12-19T04:26:54.231Z,0
2017-12-19T04:27:54.217Z,0
2017-12-19T04:28:53.965Z,0
2017-12-19T04:29:54.209Z,0
2017-12-19T04:30:53.955Z,0
2017-12-19T04:31:54.191Z,0
2017-12-19T04:32:53.938Z,0
2017-12-19T04:33:54.173Z,0
2017-12-19T04:34:54.155Z,0
2017-12-19T04:35:54.207Z,0
2017-12-19T04:36:54.144Z,0
2017-12-19T04:37:53.631Z,0
2017-12-19T04:38:56.524Z,0
2017-12-19T04:39:53.862Z,0
2017-12-19T04:40:53.858Z,0
2017-12-19T04:41:54.097Z,0
2017-12-19T04:42:54.093Z,0
2017-12-19T04:43:53.826Z,0
2017-12-19T04:44:53.828Z,0
2017-12-19T04:45:54.064Z,0
2017-12-19T04:46:54.061Z,0
2017-12-19T04:47:54.038Z,0
2017-12-19T04:48:54.589Z,0
2017-12-19T04:49:54.020Z,0
2017-12-19T04:50:53.770Z,0
2017-12-19T04:51:54.004Z,0
2017-12-19T04:52:53.739Z,0
2017-12-19T04:53:54.540Z,0
2017-12-19T04:54:54.060Z,0
2017-12-19T04:55:53.717Z,0
2017-12-19T04:56:53.957Z,0
2017-12-19T04:57:53.949Z,0
2017-12-19T04:58:53.940Z,0
2017-12-19T04:59:53.931Z,0
2017-12-19T05:00:53.916Z,0
2017-12-19T05:01:53.920Z,0
2017-12-19T05:02:53.912Z,0
2017-12-19T05:03:53.636Z,0
2017-12-19T05:04:53.885Z,0
2017-12-19T05:05:53.618Z,0
2017-12-19T05:06:53.861Z,0
2017-12-19T05:07:53.617Z,0
2017-12-19T05:08:53.863Z,0
2017-12-19T05:09:53.783Z,0
2017-12-19T05:10:53.830Z,0
2017-12-19T05:11:53.826Z,0
2017-12-19T05:12:53.556Z,0
2017-12-19T05:13:53.807Z,0
2017-12-19T05:14:53.822Z,0
2017-12-19T05:15:53.782Z,0
2017-12-19T05:16:53.777Z,0
2017-12-19T05:17:53.780Z,0
2017-12-19T05:18:53.752Z,0
2017-12-19T05:19:53.737Z,0
2017-12-19T05:20:53.741Z,0
2017-12-19T05:21:53.725Z,0
2017-12-19T05:22:53.464Z,0
2017-12-19T05:23:53.755Z,0
2017-12-19T05:24:54.961Z,0
2017-12-19T05:25:53.443Z,0
2017-12-19T05:26:53.682Z,0
2017-12-19T05:27:53.668Z,0
2017-12-19T05:28:53.409Z,0
2017-12-19T05:29:53.396Z,0
2017-12-19T05:30:53.641Z,0
2017-12-19T05:31:53.382Z,0
2017-12-19T05:32:53.617Z,0
2017-12-19T05:33:53.636Z,0
2017-12-19T05:34:54.404Z,0
2017-12-19T05:35:53.603Z,0
2017-12-19T05:36:53.584Z,0
2017-12-19T05:37:53.574Z,0
2017-12-19T05:38:53.316Z,0
2017-12-19T05:39:53.557Z,0
2017-12-19T05:40:53.291Z,0
2017-12-19T05:41:53.289Z,0
2017-12-19T05:42:53.527Z,0
2017-12-19T05:43:53.516Z,0
2017-12-19T05:44:53.507Z,0
2017-12-19T05:45:52.998Z,0
2017-12-19T05:46:53.243Z,0
2017-12-19T05:47:52.986Z,0
2017-12-19T05:48:53.479Z,0
2017-12-19T05:49:53.458Z,0
2017-12-19T05:50:52.942Z,0
2017-12-19T05:51:53.477Z,0
2017-12-19T05:52:53.184Z,0
2017-12-19T05:53:53.430Z,0
2017-12-19T05:54:54.730Z,0
2017-12-19T05:55:53.401Z,0
2017-12-19T05:56:53.400Z,0
2017-12-19T05:57:53.392Z,0
2017-12-19T05:58:53.133Z,0
2017-12-19T05:59:53.383Z,0
2017-12-19T06:00:53.118Z,0
2017-12-19T06:01:53.369Z,0
2017-12-19T06:02:53.347Z,0
2017-12-19T06:03:52.831Z,0
2017-12-19T06:04:53.338Z,0
2017-12-19T06:05:53.065Z,0
2017-12-19T06:06:53.296Z,0
2017-12-19T06:07:53.297Z,0
2017-12-19T06:08:53.277Z,0
2017-12-19T06:09:52.777Z,0
2017-12-19T06:10:53.025Z,0
2017-12-19T06:11:53.253Z,0
2017-12-19T06:12:52.991Z,0
2017-12-19T06:13:52.989Z,0
2017-12-19T06:14:52.723Z,0
2017-12-19T06:15:52.973Z,0
2017-12-19T06:16:52.701Z,0
2017-12-19T06:17:53.203Z,0
2017-12-19T06:18:52.971Z,0
2017-12-19T06:19:53.182Z,0
2017-12-19T06:20:52.922Z,0
2017-12-19T06:21:53.161Z,0
2017-12-19T06:22:53.156Z,0
2017-12-19T06:23:53.139Z,0
2017-12-19T06:24:53.140Z,0
2017-12-19T06:25:56.928Z,0
2017-12-19T06:26:52.888Z,0
2017-12-19T06:27:52.853Z,0
2017-12-19T06:28:52.847Z,0
2017-12-19T06:29:53.091Z,0
2017-12-19T06:30:52.819Z,0
2017-12-19T06:31:52.816Z,0
2017-12-19T06:32:53.054Z,0
2017-12-19T06:33:53.048Z,0
2017-12-19T06:34:53.047Z,0
2017-12-19T06:35:53.037Z,0
2017-12-19T06:36:53.030Z,0
2017-12-19T06:37:52.514Z,0
2017-12-19T06:38:52.999Z,0
2017-12-19T06:39:52.990Z,0
2017-12-19T06:40:53.033Z,0
2017-12-19T06:41:52.969Z,0
2017-12-19T06:42:52.970Z,0
2017-12-19T06:43:52.701Z,0
2017-12-19T06:44:52.947Z,0
2017-12-19T06:45:52.937Z,0
2017-12-19T06:46:52.933Z,0
2017-12-19T06:47:52.675Z,4
2017-12-19T06:48:52.908Z,4
2017-12-19T06:49:52.650Z,4
2017-12-19T06:50:52.920Z,0
2017-12-19T06:51:52.885Z,0
2017-12-19T06:52:52.626Z,4
2017-12-19T06:53:52.444Z,4
2017-12-19T06:54:52.863Z,4
2017-12-19T06:55:52.855Z,4
2017-12-19T06:56:52.589Z,4
2017-12-19T06:57:52.584Z,4
2017-12-19T06:58:52.575Z,8
2017-12-19T06:59:52.583Z,8
2017-12-19T07:00:52.614Z,8
2017-12-19T07:01:52.554Z,8
2017-12-19T07:02:52.527Z,12
2017-12-19T07:03:52.523Z,12
2017-12-19T07:04:52.780Z,12
2017-12-19T07:05:52.760Z,12
2017-12-19T07:06:52.749Z,16
2017-12-19T07:07:52.481Z,16
2017-12-19T07:08:52.726Z,24
2017-12-19T07:09:52.722Z,24
2017-12-19T07:10:54.071Z,28
2017-12-19T07:11:52.436Z,28
2017-12-19T07:12:52.686Z,32
2017-12-19T07:13:52.454Z,36
2017-12-19T07:14:52.427Z,32
2017-12-19T07:15:52.653Z,40
2017-12-19T07:16:52.430Z,36
2017-12-19T07:17:52.646Z,44
2017-12-19T07:18:52.638Z,48
2017-12-19T07:19:52.633Z,48
2017-12-19T07:20:52.613Z,56
2017-12-19T07:21:52.360Z,64
2017-12-19T07:22:52.605Z,76
2017-12-19T07:23:52.330Z,84
2017-12-19T07:24:52.353Z,92
2017-12-19T07:25:52.571Z,104
2017-12-19T07:26:52.577Z,112
2017-12-19T07:27:52.299Z,124
2017-12-19T07:28:52.563Z,140
2017-12-19T07:29:52.554Z,152
2017-12-19T07:30:52.022Z,168
2017-12-19T07:31:52.275Z,180
2017-12-19T07:32:52.516Z,204
2017-12-19T07:33:52.529Z,228
2017-12-19T07:34:52.262Z,252
2017-12-19T07:35:52.488Z,284
2017-12-19T07:36:52.484Z,312
2017-12-19T07:37:52.801Z,332
2017-12-19T07:38:52.490Z,340
2017-12-19T07:39:51.955Z,348
2017-12-19T07:40:51.935Z,356
2017-12-19T07:41:52.175Z,348
2017-12-19T07:42:52.420Z,344
2017-12-19T07:43:52.418Z,344
2017-12-19T07:44:52.474Z,360
2017-12-19T07:45:52.413Z,388
2017-12-19T07:46:52.385Z,444
2017-12-19T07:47:52.150Z,516
2017-12-19T07:48:52.381Z,596
2017-12-19T07:49:52.372Z,664
2017-12-19T07:50:52.393Z,704
2017-12-19T07:51:51.842Z,720
2017-12-19T07:52:51.583Z,716
2017-12-19T07:53:52.357Z,712
2017-12-19T07:54:52.371Z,716
2017-12-19T07:55:52.315Z,740
2017-12-19T07:56:53.322Z,796
2017-12-19T07:57:52.031Z,836
2017-12-19T07:58:52.023Z,848
2017-12-19T07:59:52.271Z,840
2017-12-19T08:00:52.271Z,836
2017-12-19T08:01:52.242Z,828
2017-12-19T08:02:52.227Z,824
2017-12-19T08:03:52.221Z,824
2017-12-19T08:04:51.971Z,844
2017-12-19T08:05:52.211Z,884
2017-12-19T08:06:52.213Z,888
2017-12-19T08:07:51.939Z,864
2017-12-19T08:08:52.175Z,836
2017-12-19T08:09:51.927Z,820
2017-12-19T08:10:52.161Z,820
2017-12-19T08:11:52.157Z,832
2017-12-19T08:12:51.913Z,840
2017-12-19T08:13:52.145Z,848
2017-12-19T08:14:52.123Z,876
2017-12-19T08:15:51.872Z,888
2017-12-19T08:16:51.851Z,876
2017-12-19T08:17:52.097Z,852
2017-12-19T08:18:51.840Z,836
2017-12-19T08:19:52.083Z,844
2017-12-19T08:20:52.086Z,884
2017-12-19T08:21:52.073Z,964
2017-12-19T08:22:51.801Z,1052
2017-12-19T08:23:52.104Z,1120
2017-12-19T08:24:52.046Z,1196
2017-12-19T08:25:52.029Z,1296
2017-12-19T08:26:52.865Z,1416
2017-12-19T08:27:52.014Z,1528
2017-12-19T08:28:51.769Z,1616
2017-12-19T08:29:51.991Z,1684
2017-12-19T08:30:51.995Z,1712
2017-12-19T08:31:51.738Z,1716
2017-12-19T08:32:51.989Z,1724
2017-12-19T08:33:51.982Z,1732
2017-12-19T08:34:51.699Z,1732
2017-12-19T08:35:51.950Z,1728
2017-12-19T08:37:23.799Z,1712
2017-12-19T08:37:51.934Z,1708
2017-12-19T08:38:51.664Z,1704
2017-12-19T08:39:51.928Z,1692
2017-12-19T08:40:51.925Z,1692
2017-12-19T08:41:51.912Z,1692
2017-12-19T08:42:51.915Z,1700
2017-12-19T08:43:51.900Z,1696
2017-12-19T08:44:51.624Z,1664
2017-12-19T08:45:51.875Z,1616
2017-12-19T08:46:51.895Z,1576
2017-12-19T08:47:51.861Z,1556
2017-12-19T08:48:51.861Z,1524
2017-12-19T08:49:51.585Z,1484
2017-12-19T08:50:51.835Z,1408
2017-12-19T08:51:51.573Z,1328
2017-12-19T08:52:51.564Z,1256
2017-12-19T08:53:51.812Z,1192
2017-12-19T08:54:51.543Z,1128
2017-12-19T08:55:51.276Z,1064
2017-12-19T08:56:52.873Z,1008
2017-12-19T08:57:51.774Z,976
2017-12-19T08:58:51.513Z,952
2017-12-19T08:59:51.506Z,928
2017-12-19T09:00:51.500Z,912
2017-12-19T09:01:51.752Z,904
2017-12-19T09:02:51.731Z,912
2017-12-19T09:03:51.729Z,924
2017-12-19T09:04:51.466Z,940
2017-12-19T09:05:51.459Z,972
2017-12-19T09:06:51.462Z,1008
2017-12-19T09:07:51.444Z,1036
2017-12-19T09:08:51.680Z,1036
2017-12-19T09:09:51.674Z,1060
2017-12-19T09:10:51.670Z,1084
2017-12-19T09:11:51.457Z,1104
2017-12-19T09:12:51.653Z,1108
2017-12-19T09:13:51.400Z,1136
2017-12-19T09:14:51.695Z,1188
2017-12-19T09:15:51.651Z,1232
2017-12-19T09:16:51.374Z,1244
2017-12-19T09:17:51.622Z,1232
2017-12-19T09:18:51.609Z,1232
2017-12-19T09:19:51.595Z,1272
2017-12-19T09:20:51.601Z,1288
2017-12-19T09:21:51.594Z,1264
2017-12-19T09:22:51.333Z,1240
2017-12-19T09:23:51.321Z,1228
2017-12-19T09:24:51.306Z,1224
2017-12-19T09:25:51.573Z,1248
2017-12-19T09:26:54.751Z,1292
2017-12-19T09:27:51.538Z,1348
2017-12-19T09:28:51.280Z,1388
2017-12-19T09:29:51.516Z,1396
2017-12-19T09:30:51.515Z,1396
2017-12-19T09:31:51.262Z,1388
2017-12-19T09:32:51.240Z,1372
2017-12-19T09:33:51.493Z,1352
2017-12-19T09:34:51.228Z,1320
2017-12-19T09:35:51.470Z,1280
2017-12-19T09:36:50.973Z,1236
2017-12-19T09:37:50.959Z,1200
2017-12-19T09:38:51.221Z,1224
2017-12-19T09:39:51.207Z,1300
2017-12-19T09:40:51.432Z,1412
2017-12-19T09:41:51.442Z,1524
2017-12-19T09:42:51.214Z,1632
2017-12-19T09:43:51.769Z,1744
2017-12-19T09:44:51.404Z,1848
2017-12-19T09:45:51.406Z,1912
2017-12-19T09:46:51.130Z,1944
2017-12-19T09:47:51.125Z,1964
2017-12-19T09:48:51.374Z,1964
2017-12-19T09:49:51.359Z,1936
2017-12-19T09:50:51.348Z,1920
2017-12-19T09:51:51.347Z,1920
2017-12-19T09:52:51.331Z,1936
2017-12-19T09:53:51.146Z,1932
2017-12-19T09:54:51.320Z,1888
2017-12-19T09:55:51.076Z,1780
2017-12-19T09:56:51.090Z,1684
2017-12-19T09:57:55.354Z,1648
2017-12-19T09:58:51.300Z,1648
2017-12-19T09:59:51.285Z,1664
2017-12-19T10:00:51.019Z,1656
2017-12-19T10:01:51.022Z,1624
2017-12-19T10:02:51.016Z,1608
2017-12-19T10:03:51.257Z,1652
2017-12-19T10:04:51.255Z,1736
2017-12-19T10:05:50.988Z,1804
2017-12-19T10:06:50.985Z,1856
2017-12-19T10:07:51.218Z,1936
2017-12-19T10:08:51.215Z,1948
2017-12-19T10:09:51.218Z,1912
2017-12-19T10:10:51.206Z,1880
2017-12-19T10:11:51.204Z,1852
2017-12-19T10:12:51.178Z,1844
2017-12-19T10:13:50.941Z,1876
2017-12-19T10:14:51.179Z,1948
2017-12-19T10:15:51.155Z,2024
2017-12-19T10:16:50.894Z,2108
2017-12-19T10:17:51.146Z,2200
2017-12-19T10:18:51.150Z,2284
2017-12-19T10:19:50.899Z,2332
2017-12-19T10:20:51.128Z,2372
2017-12-19T10:21:51.163Z,2392
2017-12-19T10:52:42.260Z,2340
2017-12-19T10:53:41.045Z,2408
2017-12-19T10:54:41.052Z,2376
2017-12-19T10:55:40.509Z,2304
2017-12-19T10:56:40.751Z,2248
2017-12-19T10:57:40.999Z,2204
2017-12-19T10:58:40.734Z,2184
2017-12-19T10:59:40.971Z,2176
2017-12-19T11:00:40.959Z,2192
2017-12-19T11:01:40.955Z,2216
2017-12-19T11:02:41.022Z,2252
2017-12-19T11:03:40.941Z,2304
2017-12-19T11:04:40.915Z,2356
2017-12-19T11:05:40.919Z,2420
2017-12-19T11:06:40.649Z,2444
2017-12-19T11:07:40.941Z,2420
2017-12-19T11:08:40.919Z,2396
2017-12-19T11:09:40.882Z,2372
2017-12-19T11:10:40.871Z,2364
2017-12-19T11:11:40.606Z,2364
2017-12-19T11:12:40.861Z,2380
2017-12-19T11:13:40.852Z,2380
2017-12-19T11:14:40.873Z,2376
2017-12-19T11:15:40.914Z,2328
2017-12-19T11:16:40.810Z,2268
2017-12-19T11:17:40.306Z,2220
2017-12-19T11:18:40.805Z,2196
2017-12-19T11:19:40.571Z,2204
2017-12-19T11:20:40.776Z,2272
2017-12-19T11:21:40.530Z,2360
2017-12-19T11:22:42.359Z,2420
2017-12-19T11:23:40.749Z,2436
2017-12-19T11:24:40.746Z,2396
2017-12-19T11:25:40.230Z,2364
2017-12-19T11:26:40.727Z,2348
2017-12-19T11:27:40.766Z,2372
2017-12-19T11:28:40.723Z,2424
2017-12-19T11:29:40.729Z,2480
2017-12-19T11:30:40.453Z,2528
2017-12-19T11:31:40.685Z,2608
2017-12-19T11:32:40.439Z,2660
2017-12-19T11:33:39.926Z,2684
2017-12-19T11:34:40.675Z,2672
2017-12-19T11:35:40.662Z,2636
2017-12-19T11:36:40.399Z,2588
2017-12-19T11:37:40.445Z,2556
2017-12-19T11:38:40.639Z,2528
2017-12-19T11:39:40.397Z,2496
2017-12-19T11:40:40.395Z,2476
2017-12-19T11:41:40.624Z,2468
2017-12-19T11:42:40.626Z,2448
2017-12-19T11:43:40.603Z,2388
2017-12-19T11:44:40.587Z,2320
2017-12-19T11:45:40.078Z,2284
2017-12-19T11:46:40.564Z,2312
2017-12-19T11:47:40.055Z,2360
2017-12-19T11:48:40.299Z,2400
2017-12-19T11:49:40.293Z,2400
2017-12-19T11:50:40.290Z,2396
2017-12-19T11:51:40.548Z,2416
2017-12-19T11:52:40.534Z,2436
2017-12-19T11:53:40.268Z,2472
2017-12-19T11:54:40.520Z,2488
2017-12-19T11:55:40.494Z,2468
2017-12-19T11:56:40.237Z,2424
2017-12-19T11:57:40.476Z,2360
2017-12-19T11:58:40.472Z,2288
2017-12-19T11:59:40.676Z,2248
2017-12-19T12:00:40.464Z,2280
2017-12-19T12:01:40.197Z,2356
2017-12-19T12:02:40.444Z,2412
2017-12-19T12:03:40.434Z,2412
2017-12-19T12:04:40.224Z,2396
2017-12-19T12:05:40.171Z,2388
2017-12-19T12:06:40.417Z,2384
2017-12-19T12:07:40.438Z,2400
2017-12-19T12:08:40.702Z,2436
2017-12-19T12:09:39.895Z,2472
2017-12-19T12:10:40.390Z,2496
2017-12-19T12:11:39.908Z,2500
2017-12-19T12:12:40.368Z,2496
2017-12-19T12:13:40.362Z,2488
2017-12-19T12:14:39.922Z,2468
2017-12-19T12:15:40.342Z,2416
2017-12-19T12:16:40.344Z,2352
2017-12-19T12:17:40.347Z,2288
2017-12-19T12:18:40.424Z,2260
2017-12-19T12:19:40.326Z,2256
2017-12-19T12:20:40.070Z,2248
2017-12-19T12:21:40.068Z,2228
2017-12-19T12:22:40.352Z,2236
2017-12-19T12:23:43.547Z,2300
2017-12-19T12:24:40.042Z,2360
2017-12-19T12:25:40.275Z,2392
2017-12-19T12:26:40.050Z,2400
2017-12-19T12:27:40.269Z,2384
2017-12-19T12:28:40.387Z,2352
2017-12-19T12:29:40.245Z,2324
2017-12-19T12:30:39.992Z,2296
2017-12-19T12:31:39.977Z,2252
2017-12-19T12:32:40.255Z,2180
2017-12-19T12:33:40.218Z,2120
2017-12-19T12:34:40.212Z,2096
2017-12-19T12:35:39.953Z,2108
2017-12-19T12:36:40.241Z,2108
2017-12-19T12:37:39.938Z,2104
2017-12-19T12:38:40.175Z,2100
2017-12-19T12:39:39.915Z,2092
2017-12-19T12:40:40.163Z,2076
2017-12-19T12:41:40.154Z,2068
2017-12-19T12:42:39.658Z,2068
2017-12-19T12:43:40.136Z,2048
2017-12-19T12:44:39.878Z,2008
2017-12-19T12:45:40.135Z,1972
2017-12-19T12:46:40.114Z,1960
2017-12-19T12:47:40.121Z,1980
2017-12-19T12:48:40.128Z,2016
2017-12-19T12:49:39.842Z,2044
2017-12-19T12:50:40.093Z,2056
2017-12-19T12:51:39.828Z,2036
2017-12-19T12:52:40.082Z,1976
2017-12-19T12:53:43.560Z,1888
2017-12-19T12:54:39.570Z,1812
2017-12-19T12:55:40.054Z,1748
2017-12-19T12:56:39.587Z,1712
2017-12-19T12:57:40.026Z,1692
2017-12-19T12:58:40.173Z,1712
2017-12-19T12:59:39.774Z,1724
2017-12-19T13:00:40.039Z,1696
2017-12-19T13:01:40.030Z,1640
2017-12-19T13:02:39.732Z,1620
2017-12-19T13:03:39.741Z,1640
2017-12-19T13:04:40.030Z,1688
2017-12-19T13:05:39.472Z,1736
2017-12-19T13:06:39.716Z,1788
2017-12-19T13:07:39.699Z,1832
2017-12-19T13:08:39.699Z,1860
2017-12-19T13:09:39.940Z,1868
2017-12-19T13:10:39.672Z,1876
2017-12-19T13:11:39.419Z,1872
2017-12-19T13:12:39.988Z,1860
2017-12-19T13:13:39.909Z,1856
2017-12-19T13:14:39.894Z,1872
2017-12-19T13:15:39.631Z,1900
2017-12-19T13:16:39.911Z,1928
2017-12-19T13:17:39.872Z,1912
2017-12-19T13:18:39.867Z,1876
2017-12-19T13:19:39.611Z,1832
2017-12-19T13:20:39.347Z,1784
2017-12-19T13:21:39.865Z,1744
2017-12-19T13:22:39.617Z,1700
2017-12-19T13:23:39.867Z,1648
2017-12-19T13:24:40.577Z,1580
2017-12-19T13:25:39.886Z,1516
2017-12-19T13:26:39.869Z,1460
2017-12-19T13:27:39.551Z,1412
2017-12-19T13:28:39.566Z,1356
2017-12-19T13:29:39.028Z,1300
2017-12-19T13:30:39.526Z,1240
2017-12-19T13:31:39.803Z,1176
2017-12-19T13:32:39.793Z,1152
2017-12-19T13:33:39.795Z,1128
2017-12-19T13:34:39.511Z,1088
2017-12-19T13:35:39.549Z,1088
2017-12-19T13:36:38.975Z,1076
2017-12-19T13:37:39.724Z,1048
2017-12-19T13:38:39.726Z,1028
2017-12-19T13:39:39.449Z,1036
2017-12-19T13:40:39.186Z,1044
2017-12-19T13:41:39.437Z,1044
2017-12-19T13:42:39.166Z,1008
2017-12-19T13:43:39.665Z,1040
2017-12-19T13:44:39.416Z,1052
2017-12-19T13:45:39.414Z,1032
2017-12-19T13:46:39.406Z,1024
2017-12-19T13:47:39.639Z,1012
2017-12-19T13:48:39.627Z,984
2017-12-19T13:49:39.630Z,960
2017-12-19T13:50:39.627Z,920
2017-12-19T13:51:39.358Z,876
2017-12-19T13:52:39.599Z,864
2017-12-19T13:53:39.593Z,840
2017-12-19T13:54:42.283Z,796
2017-12-19T13:55:39.583Z,788
2017-12-19T13:56:39.638Z,812
2017-12-19T13:57:39.067Z,872
2017-12-19T13:58:39.290Z,872
2017-12-19T13:59:39.544Z,864
2017-12-19T14:00:39.538Z,852
2017-12-19T14:01:39.021Z,820
2017-12-19T14:02:39.517Z,800
2017-12-19T14:03:39.055Z,804
2017-12-19T14:04:38.999Z,804
2017-12-19T14:05:39.256Z,800
2017-12-19T14:06:39.047Z,796
2017-12-19T14:07:39.218Z,788
2017-12-19T14:08:39.512Z,788
2017-12-19T14:09:39.194Z,764
2017-12-19T14:10:39.460Z,736
2017-12-19T14:11:39.184Z,712
2017-12-19T14:12:39.436Z,716
2017-12-19T14:13:39.522Z,724
2017-12-19T14:14:39.427Z,712
2017-12-19T14:15:39.168Z,716
2017-12-19T14:16:39.395Z,724
2017-12-19T14:17:39.387Z,716
2017-12-19T14:18:39.136Z,692
2017-12-19T14:19:39.398Z,660
2017-12-19T14:20:39.397Z,624
2017-12-19T14:21:39.426Z,596
2017-12-19T14:22:39.479Z,572
2017-12-19T14:23:38.829Z,564
2017-12-19T14:24:39.079Z,564
2017-12-19T14:25:39.391Z,560
2017-12-19T14:26:39.091Z,548
2017-12-19T14:27:39.070Z,536
2017-12-19T14:28:39.315Z,532
2017-12-19T14:29:39.299Z,528
2017-12-19T14:30:39.043Z,524
2017-12-19T14:31:39.278Z,520
2017-12-19T14:32:39.048Z,516
2017-12-19T14:33:39.012Z,504
2017-12-19T14:34:38.737Z,504
2017-12-19T14:35:39.250Z,508
2017-12-19T14:36:39.242Z,500